sensor_id;sensor_type;location;lat;lon;timestamp;temperature;humidity
15596;DHT22;7898;48.658;9.068;2023-06-10T00:00:50;15.20;99.90
15596;DHT22;7898;48.658;9.068;2023-06-10T00:03:17;15.40;99.90
15596;DHT22;7898;48.658;9.068;2023-06-10T00:05:45;15.10;99.90
15596;DHT22;7898;48.658;9.068;2023-06-10T00:08:12;15.00;99.90
15596;DHT22;7898;48.658;9.068;2023-06-10T00:10:41;15.00;99.90
15596;DHT22;7898;48.658;9.068;2023-06-10T00:13:08;15.00;99.90
15596;DHT22;7898;48.658;9.068;2023-06-10T00:15:36;15.00;99.90
15596;DHT22;7898;48.658;9.068;2023-06-10T00:18:05;15.00;99.90
15596;DHT22;7898;48.658;9.068;2023-06-10T00:20:35;15.00;99.90
15596;DHT22;7898;48.658;9.068;2023-06-10T00:23:03;14.90;99.90
15596;DHT22;7898;48.658;9.068;2023-06-10T00:25:32;14.80;99.90
15596;DHT22;7898;48.658;9.068;2023-06-10T00:27:59;14.70;99.90
15596;DHT22;7898;48.658;9.068;2023-06-10T00:30:26;14.70;99.90
15596;DHT22;7898;48.658;9.068;2023-06-10T00:32:52;14.70;99.90
15596;DHT22;7898;48.658;9.068;2023-06-10T00:35:21;14.70;99.90
15596;DHT22;7898;48.658;9.068;2023-06-10T00:37:47;14.70;99.90
15596;DHT22;7898;48.658;9.068;2023-06-10T00:40:14;14.70;99.90
15596;DHT22;7898;48.658;9.068;2023-06-10T00:42:41;14.70;99.90
15596;DHT22;7898;48.658;9.068;2023-06-10T00:45:09;14.60;99.90
15596;DHT22;7898;48.658;9.068;2023-06-10T00:47:35;14.60;99.90
15596;DHT22;7898;48.658;9.068;2023-06-10T00:50:03;14.50;99.90
15596;DHT22;7898;48.658;9.068;2023-06-10T00:52:32;14.50;99.90
15596;DHT22;7898;48.658;9.068;2023-06-10T00:55:00;14.50;99.90
15596;DHT22;7898;48.658;9.068;2023-06-10T00:57:26;14.50;99.90
15596;DHT22;7898;48.658;9.068;2023-06-10T00:59:54;14.40;99.90
15596;DHT22;7898;48.658;9.068;2023-06-10T01:02:21;14.30;99.90
15596;DHT22;7898;48.658;9.068;2023-06-10T01:04:48;14.30;99.90
15596;DHT22;7898;48.658;9.068;2023-06-10T01:07:22;14.20;99.90
15596;DHT22;7898;48.658;9.068;2023-06-10T01:09:55;14.10;99.90
15596;DHT22;7898;48.658;9.068;2023-06-10T01:12:31;14.20;99.90
15596;DHT22;7898;48.658;9.068;2023-06-10T01:15:00;14.10;99.90
15596;DHT22;7898;48.658;9.068;2023-06-10T01:17:29;14.10;99.90
15596;DHT22;7898;48.658;9.068;2023-06-10T01:19:57;14.10;99.90
15596;DHT22;7898;48.658;9.068;2023-06-10T01:22:27;14.10;99.90
15596;DHT22;7898;48.658;9.068;2023-06-10T01:24:57;14.00;99.90
15596;DHT22;7898;48.658;9.068;2023-06-10T01:27:28;14.00;99.90
15596;DHT22;7898;48.658;9.068;2023-06-10T01:30:00;13.90;99.90
15596;DHT22;7898;48.658;9.068;2023-06-10T01:32:33;13.90;99.90
15596;DHT22;7898;48.658;9.068;2023-06-10T01:35:02;13.80;99.90
15596;DHT22;7898;48.658;9.068;2023-06-10T01:37:33;13.80;99.90
15596;DHT22;7898;48.658;9.068;2023-06-10T01:40:01;13.70;99.90
15596;DHT22;7898;48.658;9.068;2023-06-10T01:42:31;13.70;99.90
15596;DHT22;7898;48.658;9.068;2023-06-10T01:44:59;13.70;99.90
15596;DHT22;7898;48.658;9.068;2023-06-10T01:47:26;13.60;99.90
15596;DHT22;7898;48.658;9.068;2023-06-10T01:49:53;13.70;99.90
15596;DHT22;7898;48.658;9.068;2023-06-10T01:52:20;13.60;99.90
15596;DHT22;7898;48.658;9.068;2023-06-10T01:54:48;13.60;99.90
15596;DHT22;7898;48.658;9.068;2023-06-10T01:57:15;13.60;99.90
15596;DHT22;7898;48.658;9.068;2023-06-10T01:59:42;13.50;99.90
15596;DHT22;7898;48.658;9.068;2023-06-10T02:02:09;13.50;99.90
15596;DHT22;7898;48.658;9.068;2023-06-10T02:04:36;13.50;99.90
15596;DHT22;7898;48.658;9.068;2023-06-10T02:07:04;13.50;99.90
15596;DHT22;7898;48.658;9.068;2023-06-10T02:09:31;13.50;99.90
15596;DHT22;7898;48.658;9.068;2023-06-10T02:12:02;13.40;99.90
15596;DHT22;7898;48.658;9.068;2023-06-10T02:14:29;13.50;99.90
15596;DHT22;7898;48.658;9.068;2023-06-10T02:16:56;13.40;99.90
15596;DHT22;7898;48.658;9.068;2023-06-10T02:19:23;13.30;99.90
15596;DHT22;7898;48.658;9.068;2023-06-10T02:21:52;13.20;99.90
15596;DHT22;7898;48.658;9.068;2023-06-10T02:24:19;13.10;99.90
15596;DHT22;7898;48.658;9.068;2023-06-10T02:26:45;13.10;99.90
15596;DHT22;7898;48.658;9.068;2023-06-10T02:29:14;13.10;99.90
15596;DHT22;7898;48.658;9.068;2023-06-10T02:31:41;13.10;99.90
15596;DHT22;7898;48.658;9.068;2023-06-10T02:34:08;13.00;99.90
15596;DHT22;7898;48.658;9.068;2023-06-10T02:36:35;13.00;99.90
15596;DHT22;7898;48.658;9.068;2023-06-10T02:39:02;13.00;99.90
15596;DHT22;7898;48.658;9.068;2023-06-10T02:41:29;13.00;99.90
15596;DHT22;7898;48.658;9.068;2023-06-10T02:43:56;13.00;99.90
15596;DHT22;7898;48.658;9.068;2023-06-10T02:46:25;13.00;99.90
15596;DHT22;7898;48.658;9.068;2023-06-10T02:48:51;13.10;99.90
15596;DHT22;7898;48.658;9.068;2023-06-10T02:51:18;13.10;99.90
15596;DHT22;7898;48.658;9.068;2023-06-10T02:53:46;13.10;99.90
15596;DHT22;7898;48.658;9.068;2023-06-10T02:56:15;13.10;99.90
15596;DHT22;7898;48.658;9.068;2023-06-10T02:58:42;13.00;99.90
15596;DHT22;7898;48.658;9.068;2023-06-10T03:01:09;12.90;99.90
15596;DHT22;7898;48.658;9.068;2023-06-10T03:03:38;12.90;99.90
15596;DHT22;7898;48.658;9.068;2023-06-10T03:06:08;12.80;99.90
15596;DHT22;7898;48.658;9.068;2023-06-10T03:08:35;12.80;99.90
15596;DHT22;7898;48.658;9.068;2023-06-10T03:11:02;12.70;99.90
15596;DHT22;7898;48.658;9.068;2023-06-10T03:13:29;12.70;99.90
15596;DHT22;7898;48.658;9.068;2023-06-10T03:15:56;12.70;99.90
15596;DHT22;7898;48.658;9.068;2023-06-10T03:18:27;12.70;99.90
15596;DHT22;7898;48.658;9.068;2023-06-10T03:20:55;12.70;99.90
15596;DHT22;7898;48.658;9.068;2023-06-10T03:23:23;12.70;99.90
15596;DHT22;7898;48.658;9.068;2023-06-10T03:25:50;12.70;99.90
15596;DHT22;7898;48.658;9.068;2023-06-10T03:28:16;12.60;99.90
15596;DHT22;7898;48.658;9.068;2023-06-10T03:30:43;12.60;99.90
15596;DHT22;7898;48.658;9.068;2023-06-10T03:33:10;12.60;99.90
15596;DHT22;7898;48.658;9.068;2023-06-10T03:35:37;12.60;99.90
15596;DHT22;7898;48.658;9.068;2023-06-10T03:38:05;12.60;99.90
15596;DHT22;7898;48.658;9.068;2023-06-10T03:40:32;12.60;99.90
15596;DHT22;7898;48.658;9.068;2023-06-10T03:43:00;12.70;99.90
15596;DHT22;7898;48.658;9.068;2023-06-10T03:45:26;12.70;99.90
15596;DHT22;7898;48.658;9.068;2023-06-10T03:47:54;12.70;99.90
15596;DHT22;7898;48.658;9.068;2023-06-10T03:50:22;12.70;99.90
15596;DHT22;7898;48.658;9.068;2023-06-10T03:52:50;12.70;99.90
15596;DHT22;7898;48.658;9.068;2023-06-10T03:55:18;12.70;99.90
15596;DHT22;7898;48.658;9.068;2023-06-10T03:57:47;12.70;99.90
15596;DHT22;7898;48.658;9.068;2023-06-10T04:00:15;12.80;99.90
15596;DHT22;7898;48.658;9.068;2023-06-10T04:02:43;12.90;99.90
15596;DHT22;7898;48.658;9.068;2023-06-10T04:05:13;12.90;99.90
15596;DHT22;7898;48.658;9.068;2023-06-10T04:07:40;13.00;99.90
15596;DHT22;7898;48.658;9.068;2023-06-10T04:10:08;13.00;99.90
15596;DHT22;7898;48.658;9.068;2023-06-10T04:12:37;13.10;99.90
15596;DHT22;7898;48.658;9.068;2023-06-10T04:15:05;13.10;99.90
15596;DHT22;7898;48.658;9.068;2023-06-10T04:17:32;13.10;99.90
15596;DHT22;7898;48.658;9.068;2023-06-10T04:19:59;13.10;99.90
15596;DHT22;7898;48.658;9.068;2023-06-10T04:22:26;13.20;99.90
15596;DHT22;7898;48.658;9.068;2023-06-10T04:24:53;13.20;99.90
15596;DHT22;7898;48.658;9.068;2023-06-10T04:27:20;13.10;99.90
15596;DHT22;7898;48.658;9.068;2023-06-10T04:29:48;13.10;99.90
15596;DHT22;7898;48.658;9.068;2023-06-10T04:32:15;13.20;99.90
15596;DHT22;7898;48.658;9.068;2023-06-10T04:34:42;13.20;99.90
15596;DHT22;7898;48.658;9.068;2023-06-10T04:37:09;13.30;99.90
15596;DHT22;7898;48.658;9.068;2023-06-10T04:39:36;13.40;99.90
15596;DHT22;7898;48.658;9.068;2023-06-10T04:42:03;13.50;99.90
15596;DHT22;7898;48.658;9.068;2023-06-10T04:44:30;13.60;99.90
15596;DHT22;7898;48.658;9.068;2023-06-10T04:46:58;13.70;99.90
15596;DHT22;7898;48.658;9.068;2023-06-10T04:49:26;13.90;99.90
15596;DHT22;7898;48.658;9.068;2023-06-10T04:51:53;14.00;99.90
15596;DHT22;7898;48.658;9.068;2023-06-10T04:54:22;14.10;99.90
15596;DHT22;7898;48.658;9.068;2023-06-10T04:56:49;14.20;99.90
15596;DHT22;7898;48.658;9.068;2023-06-10T04:59:16;14.30;99.90
15596;DHT22;7898;48.658;9.068;2023-06-10T05:01:43;14.40;99.90
15596;DHT22;7898;48.658;9.068;2023-06-10T05:04:11;14.50;99.90
15596;DHT22;7898;48.658;9.068;2023-06-10T05:06:38;14.60;99.90
15596;DHT22;7898;48.658;9.068;2023-06-10T05:09:04;14.70;99.90
15596;DHT22;7898;48.658;9.068;2023-06-10T05:11:31;14.80;99.90
15596;DHT22;7898;48.658;9.068;2023-06-10T05:13:58;15.00;99.90
15596;DHT22;7898;48.658;9.068;2023-06-10T05:16:25;15.10;99.90
15596;DHT22;7898;48.658;9.068;2023-06-10T05:18:52;15.20;99.90
15596;DHT22;7898;48.658;9.068;2023-06-10T05:21:20;15.50;99.90
15596;DHT22;7898;48.658;9.068;2023-06-10T05:23:47;15.60;99.90
15596;DHT22;7898;48.658;9.068;2023-06-10T05:26:14;15.70;99.90
15596;DHT22;7898;48.658;9.068;2023-06-10T05:28:40;15.90;99.90
15596;DHT22;7898;48.658;9.068;2023-06-10T05:31:07;16.10;99.90
15596;DHT22;7898;48.658;9.068;2023-06-10T05:33:34;16.30;99.90
15596;DHT22;7898;48.658;9.068;2023-06-10T05:36:01;16.50;99.90
15596;DHT22;7898;48.658;9.068;2023-06-10T05:38:29;16.60;99.90
15596;DHT22;7898;48.658;9.068;2023-06-10T05:40:56;16.80;99.90
15596;DHT22;7898;48.658;9.068;2023-06-10T05:43:24;17.00;99.90
15596;DHT22;7898;48.658;9.068;2023-06-10T05:45:51;17.20;99.90
15596;DHT22;7898;48.658;9.068;2023-06-10T05:48:18;17.40;99.90
15596;DHT22;7898;48.658;9.068;2023-06-10T05:50:45;17.50;99.90
15596;DHT22;7898;48.658;9.068;2023-06-10T05:53:13;17.70;99.90
15596;DHT22;7898;48.658;9.068;2023-06-10T05:55:43;17.90;99.90
15596;DHT22;7898;48.658;9.068;2023-06-10T05:58:10;18.10;99.90
15596;DHT22;7898;48.658;9.068;2023-06-10T06:00:38;18.40;99.90
15596;DHT22;7898;48.658;9.068;2023-06-10T06:03:06;18.50;99.90
15596;DHT22;7898;48.658;9.068;2023-06-10T06:05:34;18.70;99.90
15596;DHT22;7898;48.658;9.068;2023-06-10T06:08:03;18.90;99.90
15596;DHT22;7898;48.658;9.068;2023-06-10T06:10:30;19.10;99.90
15596;DHT22;7898;48.658;9.068;2023-06-10T06:12:58;19.20;99.90
15596;DHT22;7898;48.658;9.068;2023-06-10T06:15:25;19.40;99.90
15596;DHT22;7898;48.658;9.068;2023-06-10T06:17:52;19.50;99.90
15596;DHT22;7898;48.658;9.068;2023-06-10T06:20:19;19.70;99.90
15596;DHT22;7898;48.658;9.068;2023-06-10T06:22:46;19.80;99.90
15596;DHT22;7898;48.658;9.068;2023-06-10T06:25:13;19.90;99.90
15596;DHT22;7898;48.658;9.068;2023-06-10T06:27:40;20.00;99.90
15596;DHT22;7898;48.658;9.068;2023-06-10T06:30:09;20.00;99.90
15596;DHT22;7898;48.658;9.068;2023-06-10T06:32:37;20.10;99.90
15596;DHT22;7898;48.658;9.068;2023-06-10T06:35:04;20.20;99.90
15596;DHT22;7898;48.658;9.068;2023-06-10T06:37:33;20.30;99.90
15596;DHT22;7898;48.658;9.068;2023-06-10T06:40:00;20.50;99.90
15596;DHT22;7898;48.658;9.068;2023-06-10T06:42:28;20.70;99.90
15596;DHT22;7898;48.658;9.068;2023-06-10T06:44:55;21.00;99.90
15596;DHT22;7898;48.658;9.068;2023-06-10T06:47:23;21.30;99.90
15596;DHT22;7898;48.658;9.068;2023-06-10T06:49:50;21.40;99.90
15596;DHT22;7898;48.658;9.068;2023-06-10T06:52:17;21.70;99.90
15596;DHT22;7898;48.658;9.068;2023-06-10T06:54:44;22.00;99.90
15596;DHT22;7898;48.658;9.068;2023-06-10T06:57:11;22.30;99.90
15596;DHT22;7898;48.658;9.068;2023-06-10T06:59:38;22.70;99.90
15596;DHT22;7898;48.658;9.068;2023-06-10T07:02:05;23.20;99.90
15596;DHT22;7898;48.658;9.068;2023-06-10T07:04:34;23.60;99.90
15596;DHT22;7898;48.658;9.068;2023-06-10T07:07:00;23.90;99.90
15596;DHT22;7898;48.658;9.068;2023-06-10T07:09:29;24.30;99.90
15596;DHT22;7898;48.658;9.068;2023-06-10T07:11:56;24.80;99.90
15596;DHT22;7898;48.658;9.068;2023-06-10T07:14:22;24.80;99.90
15596;DHT22;7898;48.658;9.068;2023-06-10T07:16:49;25.10;99.90
15596;DHT22;7898;48.658;9.068;2023-06-10T07:19:16;25.40;99.90
15596;DHT22;7898;48.658;9.068;2023-06-10T07:21:44;25.50;99.90
15596;DHT22;7898;48.658;9.068;2023-06-10T07:24:11;25.40;99.90
15596;DHT22;7898;48.658;9.068;2023-06-10T07:26:38;25.20;99.90
15596;DHT22;7898;48.658;9.068;2023-06-10T07:29:05;25.00;99.90
15596;DHT22;7898;48.658;9.068;2023-06-10T07:31:32;25.10;99.90
15596;DHT22;7898;48.658;9.068;2023-06-10T07:33:59;25.10;99.90
15596;DHT22;7898;48.658;9.068;2023-06-10T07:36:26;25.00;99.90
15596;DHT22;7898;48.658;9.068;2023-06-10T07:38:55;24.80;99.90
15596;DHT22;7898;48.658;9.068;2023-06-10T07:41:23;24.90;99.90
15596;DHT22;7898;48.658;9.068;2023-06-10T07:43:50;25.00;99.90
15596;DHT22;7898;48.658;9.068;2023-06-10T07:46:20;25.20;99.90
15596;DHT22;7898;48.658;9.068;2023-06-10T07:48:47;25.20;99.90
15596;DHT22;7898;48.658;9.068;2023-06-10T07:51:15;25.00;99.90
15596;DHT22;7898;48.658;9.068;2023-06-10T07:53:42;24.80;99.90
15596;DHT22;7898;48.658;9.068;2023-06-10T07:56:11;24.60;99.90
15596;DHT22;7898;48.658;9.068;2023-06-10T07:58:37;24.50;99.90
15596;DHT22;7898;48.658;9.068;2023-06-10T08:01:04;24.50;99.90
15596;DHT22;7898;48.658;9.068;2023-06-10T08:03:31;24.50;99.90
15596;DHT22;7898;48.658;9.068;2023-06-10T08:05:58;24.50;99.90
15596;DHT22;7898;48.658;9.068;2023-06-10T08:08:25;24.60;99.90
15596;DHT22;7898;48.658;9.068;2023-06-10T08:10:52;24.50;99.90
15596;DHT22;7898;48.658;9.068;2023-06-10T08:13:20;24.50;99.90
15596;DHT22;7898;48.658;9.068;2023-06-10T08:15:47;24.50;99.90
15596;DHT22;7898;48.658;9.068;2023-06-10T08:18:16;24.40;99.90
15596;DHT22;7898;48.658;9.068;2023-06-10T08:20:43;24.40;99.90
15596;DHT22;7898;48.658;9.068;2023-06-10T08:23:09;24.30;99.90
15596;DHT22;7898;48.658;9.068;2023-06-10T08:25:36;24.60;99.90
15596;DHT22;7898;48.658;9.068;2023-06-10T08:28:03;24.80;99.90
15596;DHT22;7898;48.658;9.068;2023-06-10T08:30:31;25.10;99.90
15596;DHT22;7898;48.658;9.068;2023-06-10T08:32:59;25.00;99.90
15596;DHT22;7898;48.658;9.068;2023-06-10T08:35:26;25.00;99.90
15596;DHT22;7898;48.658;9.068;2023-06-10T08:37:53;25.20;99.90
15596;DHT22;7898;48.658;9.068;2023-06-10T08:40:20;25.40;99.90
15596;DHT22;7898;48.658;9.068;2023-06-10T08:42:51;25.60;99.90
15596;DHT22;7898;48.658;9.068;2023-06-10T08:45:21;25.70;99.90
15596;DHT22;7898;48.658;9.068;2023-06-10T08:47:51;25.80;99.90
15596;DHT22;7898;48.658;9.068;2023-06-10T08:50:19;25.90;99.90
15596;DHT22;7898;48.658;9.068;2023-06-10T08:52:48;26.10;99.90
15596;DHT22;7898;48.658;9.068;2023-06-10T08:55:18;26.10;99.90
15596;DHT22;7898;48.658;9.068;2023-06-10T08:57:51;26.00;99.90
15596;DHT22;7898;48.658;9.068;2023-06-10T09:00:19;25.80;99.90
15596;DHT22;7898;48.658;9.068;2023-06-10T09:02:46;25.90;99.90
15596;DHT22;7898;48.658;9.068;2023-06-10T09:05:16;25.80;99.90
15596;DHT22;7898;48.658;9.068;2023-06-10T09:07:43;25.40;99.90
15596;DHT22;7898;48.658;9.068;2023-06-10T09:10:11;25.40;99.90
15596;DHT22;7898;48.658;9.068;2023-06-10T09:12:38;25.60;99.90
15596;DHT22;7898;48.658;9.068;2023-06-10T09:15:06;25.80;99.90
15596;DHT22;7898;48.658;9.068;2023-06-10T09:17:33;25.80;99.90
15596;DHT22;7898;48.658;9.068;2023-06-10T09:20:02;25.90;99.90
15596;DHT22;7898;48.658;9.068;2023-06-10T09:22:30;25.90;99.90
15596;DHT22;7898;48.658;9.068;2023-06-10T09:25:04;26.10;99.90
15596;DHT22;7898;48.658;9.068;2023-06-10T09:27:32;26.10;99.90
15596;DHT22;7898;48.658;9.068;2023-06-10T09:29:59;26.20;99.90
15596;DHT22;7898;48.658;9.068;2023-06-10T09:32:26;26.00;99.90
15596;DHT22;7898;48.658;9.068;2023-06-10T09:34:54;26.10;99.90
15596;DHT22;7898;48.658;9.068;2023-06-10T09:37:22;26.00;99.90
15596;DHT22;7898;48.658;9.068;2023-06-10T09:40:11;25.80;99.90
15596;DHT22;7898;48.658;9.068;2023-06-10T09:42:39;25.80;99.90
15596;DHT22;7898;48.658;9.068;2023-06-10T09:45:07;25.80;99.90
15596;DHT22;7898;48.658;9.068;2023-06-10T09:47:34;25.80;99.90
15596;DHT22;7898;48.658;9.068;2023-06-10T09:50:01;25.60;99.90
15596;DHT22;7898;48.658;9.068;2023-06-10T09:52:29;25.60;99.90
15596;DHT22;7898;48.658;9.068;2023-06-10T09:54:59;25.70;99.90
15596;DHT22;7898;48.658;9.068;2023-06-10T09:57:31;25.90;99.90
15596;DHT22;7898;48.658;9.068;2023-06-10T09:59:59;26.10;99.90
15596;DHT22;7898;48.658;9.068;2023-06-10T10:02:30;26.20;99.90
15596;DHT22;7898;48.658;9.068;2023-06-10T10:05:02;26.40;99.90
15596;DHT22;7898;48.658;9.068;2023-06-10T10:07:29;26.40;99.90
15596;DHT22;7898;48.658;9.068;2023-06-10T10:09:56;26.30;99.90
15596;DHT22;7898;48.658;9.068;2023-06-10T10:12:23;26.20;99.90
15596;DHT22;7898;48.658;9.068;2023-06-10T10:14:52;26.30;99.90
15596;DHT22;7898;48.658;9.068;2023-06-10T10:17:21;26.40;99.90
15596;DHT22;7898;48.658;9.068;2023-06-10T10:19:53;26.60;99.90
15596;DHT22;7898;48.658;9.068;2023-06-10T10:22:25;26.60;99.90
15596;DHT22;7898;48.658;9.068;2023-06-10T10:24:53;26.80;99.90
15596;DHT22;7898;48.658;9.068;2023-06-10T10:27:27;27.10;99.90
15596;DHT22;7898;48.658;9.068;2023-06-10T10:29:57;27.20;99.90
15596;DHT22;7898;48.658;9.068;2023-06-10T10:32:29;27.30;99.90
15596;DHT22;7898;48.658;9.068;2023-06-10T10:35:03;27.30;99.90
15596;DHT22;7898;48.658;9.068;2023-06-10T10:37:35;27.40;99.90
15596;DHT22;7898;48.658;9.068;2023-06-10T10:40:02;27.10;99.90
15596;DHT22;7898;48.658;9.068;2023-06-10T10:42:30;26.70;99.90
15596;DHT22;7898;48.658;9.068;2023-06-10T10:44:59;26.40;99.90
15596;DHT22;7898;48.658;9.068;2023-06-10T10:47:27;26.40;99.90
15596;DHT22;7898;48.658;9.068;2023-06-10T10:49:56;26.30;99.90
15596;DHT22;7898;48.658;9.068;2023-06-10T10:52:25;26.20;99.90
15596;DHT22;7898;48.658;9.068;2023-06-10T10:54:53;26.30;99.90
15596;DHT22;7898;48.658;9.068;2023-06-10T10:57:21;26.50;99.90
15596;DHT22;7898;48.658;9.068;2023-06-10T10:59:54;26.70;99.90
15596;DHT22;7898;48.658;9.068;2023-06-10T11:02:39;27.00;99.90
15596;DHT22;7898;48.658;9.068;2023-06-10T11:05:09;27.20;99.90
15596;DHT22;7898;48.658;9.068;2023-06-10T11:07:37;27.50;99.90
15596;DHT22;7898;48.658;9.068;2023-06-10T11:10:07;27.60;99.90
15596;DHT22;7898;48.658;9.068;2023-06-10T11:12:41;27.70;99.90
15596;DHT22;7898;48.658;9.068;2023-06-10T11:15:09;27.40;99.90
15596;DHT22;7898;48.658;9.068;2023-06-10T11:17:37;26.90;99.90
15596;DHT22;7898;48.658;9.068;2023-06-10T11:20:04;26.80;99.90
15596;DHT22;7898;48.658;9.068;2023-06-10T11:22:33;26.90;99.90
15596;DHT22;7898;48.658;9.068;2023-06-10T11:25:00;27.00;99.90
15596;DHT22;7898;48.658;9.068;2023-06-10T11:27:37;27.00;99.90
15596;DHT22;7898;48.658;9.068;2023-06-10T11:30:20;27.10;99.90
15596;DHT22;7898;48.658;9.068;2023-06-10T11:32:54;27.10;99.90
15596;DHT22;7898;48.658;9.068;2023-06-10T11:35:24;27.30;99.90
15596;DHT22;7898;48.658;9.068;2023-06-10T11:37:52;27.50;99.90
15596;DHT22;7898;48.658;9.068;2023-06-10T11:40:19;27.60;99.90
15596;DHT22;7898;48.658;9.068;2023-06-10T11:42:46;27.50;99.90
15596;DHT22;7898;48.658;9.068;2023-06-10T11:45:15;27.40;99.90
15596;DHT22;7898;48.658;9.068;2023-06-10T11:47:57;27.20;99.90
15596;DHT22;7898;48.658;9.068;2023-06-10T11:50:31;27.20;99.90
15596;DHT22;7898;48.658;9.068;2023-06-10T11:52:58;27.20;99.90
15596;DHT22;7898;48.658;9.068;2023-06-10T11:55:25;27.40;99.90
15596;DHT22;7898;48.658;9.068;2023-06-10T11:57:52;27.30;99.90
15596;DHT22;7898;48.658;9.068;2023-06-10T12:00:23;27.20;99.90
15596;DHT22;7898;48.658;9.068;2023-06-10T12:02:56;27.10;99.90
15596;DHT22;7898;48.658;9.068;2023-06-10T12:05:24;27.00;99.90
15596;DHT22;7898;48.658;9.068;2023-06-10T12:08:08;27.10;99.90
15596;DHT22;7898;48.658;9.068;2023-06-10T12:10:39;27.20;99.90
15596;DHT22;7898;48.658;9.068;2023-06-10T12:13:06;27.50;99.90
15596;DHT22;7898;48.658;9.068;2023-06-10T12:15:34;27.70;99.90
15596;DHT22;7898;48.658;9.068;2023-06-10T12:18:03;27.80;99.90
15596;DHT22;7898;48.658;9.068;2023-06-10T12:20:31;27.60;99.90
15596;DHT22;7898;48.658;9.068;2023-06-10T12:22:59;27.50;99.90
15596;DHT22;7898;48.658;9.068;2023-06-10T12:25:27;27.60;99.90
15596;DHT22;7898;48.658;9.068;2023-06-10T12:27:57;27.60;99.90
15596;DHT22;7898;48.658;9.068;2023-06-10T12:30:25;27.60;99.90
15596;DHT22;7898;48.658;9.068;2023-06-10T12:32:53;27.40;99.90
15596;DHT22;7898;48.658;9.068;2023-06-10T12:35:23;27.30;99.90
15596;DHT22;7898;48.658;9.068;2023-06-10T12:37:58;27.30;99.90
15596;DHT22;7898;48.658;9.068;2023-06-10T12:40:27;27.40;99.90
15596;DHT22;7898;48.658;9.068;2023-06-10T12:42:54;27.70;99.90
15596;DHT22;7898;48.658;9.068;2023-06-10T12:45:26;27.70;99.90
15596;DHT22;7898;48.658;9.068;2023-06-10T12:48:04;27.70;99.90
15596;DHT22;7898;48.658;9.068;2023-06-10T12:50:35;27.90;99.90
15596;DHT22;7898;48.658;9.068;2023-06-10T12:53:02;28.20;99.90
15596;DHT22;7898;48.658;9.068;2023-06-10T12:55:30;28.50;99.90
15596;DHT22;7898;48.658;9.068;2023-06-10T12:57:57;28.70;99.90
15596;DHT22;7898;48.658;9.068;2023-06-10T13:00:24;28.60;99.90
15596;DHT22;7898;48.658;9.068;2023-06-10T13:02:52;28.40;99.90
15596;DHT22;7898;48.658;9.068;2023-06-10T13:05:19;28.00;99.90
15596;DHT22;7898;48.658;9.068;2023-06-10T13:07:48;27.70;99.90
15596;DHT22;7898;48.658;9.068;2023-06-10T13:10:16;27.30;99.90
15596;DHT22;7898;48.658;9.068;2023-06-10T13:12:44;27.10;99.90
15596;DHT22;7898;48.658;9.068;2023-06-10T13:15:12;27.30;99.90
15596;DHT22;7898;48.658;9.068;2023-06-10T13:17:41;27.60;99.90
15596;DHT22;7898;48.658;9.068;2023-06-10T13:20:09;27.90;99.90
15596;DHT22;7898;48.658;9.068;2023-06-10T13:22:36;28.10;99.90
15596;DHT22;7898;48.658;9.068;2023-06-10T13:25:05;28.20;99.90
15596;DHT22;7898;48.658;9.068;2023-06-10T13:27:33;28.30;99.90
15596;DHT22;7898;48.658;9.068;2023-06-10T13:30:00;28.50;99.90
15596;DHT22;7898;48.658;9.068;2023-06-10T13:32:27;28.60;99.90
15596;DHT22;7898;48.658;9.068;2023-06-10T13:34:54;28.70;99.90
15596;DHT22;7898;48.658;9.068;2023-06-10T13:37:22;28.70;99.90
15596;DHT22;7898;48.658;9.068;2023-06-10T13:39:49;28.80;99.60
15596;DHT22;7898;48.658;9.068;2023-06-10T13:42:18;28.70;98.20
15596;DHT22;7898;48.658;9.068;2023-06-10T13:44:45;28.70;99.40
15596;DHT22;7898;48.658;9.068;2023-06-10T13:47:13;28.60;99.50
15596;DHT22;7898;48.658;9.068;2023-06-10T13:49:40;28.80;99.90
15596;DHT22;7898;48.658;9.068;2023-06-10T13:52:07;29.10;99.90
15596;DHT22;7898;48.658;9.068;2023-06-10T13:54:34;29.10;99.90
15596;DHT22;7898;48.658;9.068;2023-06-10T13:57:02;28.90;99.90
15596;DHT22;7898;48.658;9.068;2023-06-10T13:59:30;28.50;99.90
15596;DHT22;7898;48.658;9.068;2023-06-10T14:01:57;28.10;99.90
15596;DHT22;7898;48.658;9.068;2023-06-10T14:04:24;27.70;99.90
15596;DHT22;7898;48.658;9.068;2023-06-10T14:06:51;27.40;99.90
15596;DHT22;7898;48.658;9.068;2023-06-10T14:09:18;27.10;99.90
15596;DHT22;7898;48.658;9.068;2023-06-10T14:11:45;27.00;99.90
15596;DHT22;7898;48.658;9.068;2023-06-10T14:14:13;26.90;99.90
15596;DHT22;7898;48.658;9.068;2023-06-10T14:16:42;26.90;99.90
15596;DHT22;7898;48.658;9.068;2023-06-10T14:19:09;27.10;99.90
15596;DHT22;7898;48.658;9.068;2023-06-10T14:21:36;27.10;99.90
15596;DHT22;7898;48.658;9.068;2023-06-10T14:24:03;27.30;99.90
15596;DHT22;7898;48.658;9.068;2023-06-10T14:26:30;27.70;99.90
15596;DHT22;7898;48.658;9.068;2023-06-10T14:28:58;28.20;99.90
15596;DHT22;7898;48.658;9.068;2023-06-10T14:31:25;28.80;99.80
15596;DHT22;7898;48.658;9.068;2023-06-10T14:33:53;29.30;99.90
15596;DHT22;7898;48.658;9.068;2023-06-10T14:36:20;29.90;99.90
15596;DHT22;7898;48.658;9.068;2023-06-10T14:38:47;30.30;99.90
15596;DHT22;7898;48.658;9.068;2023-06-10T14:41:14;30.70;99.10
15596;DHT22;7898;48.658;9.068;2023-06-10T14:43:41;30.50;99.90
15596;DHT22;7898;48.658;9.068;2023-06-10T14:46:08;30.10;99.30
15596;DHT22;7898;48.658;9.068;2023-06-10T14:48:34;29.60;99.90
15596;DHT22;7898;48.658;9.068;2023-06-10T14:51:03;29.40;99.90
15596;DHT22;7898;48.658;9.068;2023-06-10T14:53:30;29.70;99.90
15596;DHT22;7898;48.658;9.068;2023-06-10T14:55:56;30.20;98.90
15596;DHT22;7898;48.658;9.068;2023-06-10T14:58:23;30.20;98.40
15596;DHT22;7898;48.658;9.068;2023-06-10T15:00:50;30.60;98.40
15596;DHT22;7898;48.658;9.068;2023-06-10T15:03:17;31.10;99.20
15596;DHT22;7898;48.658;9.068;2023-06-10T15:05:44;31.20;98.00
15596;DHT22;7898;48.658;9.068;2023-06-10T15:08:12;31.10;97.50
15596;DHT22;7898;48.658;9.068;2023-06-10T15:10:39;30.80;97.70
15596;DHT22;7898;48.658;9.068;2023-06-10T15:13:06;30.50;98.10
15596;DHT22;7898;48.658;9.068;2023-06-10T15:15:33;29.90;98.40
15596;DHT22;7898;48.658;9.068;2023-06-10T15:18:00;29.50;98.30
15596;DHT22;7898;48.658;9.068;2023-06-10T15:20:27;29.20;99.70
15596;DHT22;7898;48.658;9.068;2023-06-10T15:22:53;28.80;99.90
15596;DHT22;7898;48.658;9.068;2023-06-10T15:25:22;28.40;99.90
15596;DHT22;7898;48.658;9.068;2023-06-10T15:27:49;28.00;99.90
15596;DHT22;7898;48.658;9.068;2023-06-10T15:30:16;27.90;99.90
15596;DHT22;7898;48.658;9.068;2023-06-10T15:32:43;27.60;99.90
15596;DHT22;7898;48.658;9.068;2023-06-10T15:35:10;27.20;99.90
15596;DHT22;7898;48.658;9.068;2023-06-10T15:37:37;27.10;99.90
15596;DHT22;7898;48.658;9.068;2023-06-10T15:40:05;27.00;99.90
15596;DHT22;7898;48.658;9.068;2023-06-10T15:42:34;27.10;99.90
15596;DHT22;7898;48.658;9.068;2023-06-10T15:45:00;27.10;99.90
15596;DHT22;7898;48.658;9.068;2023-06-10T15:47:27;27.10;99.90
15596;DHT22;7898;48.658;9.068;2023-06-10T15:49:54;27.00;99.90